Time;durP1;ratioP1;P1;durP2;ratioP2;P2;SDS_P1;SDS_P2;PMS_P1;PMS_P2;Temp;Humidity;BMP_temperature;BMP_pressure;BME280_temperature;BME280_humidity;BME280_pressure;Samples;Min_cycle;Max_cycle;Signal;HPM_P1;HPM_P2
2022/08/05 00:00:49;;;;;;;5.28;4.10;;;;;;;26.07;48.08;98611.00;5183061;28;20049;-70
2022/08/05 00:03:40;;;;;;;9.40;4.85;;;;;;;25.92;49.24;98616.25;5183972;28;20172;-70
2022/08/05 00:06:32;;;;;;;12.50;4.00;;;;;;;25.62;51.71;98625.59;5182551;28;20135;-70
2022/08/05 00:09:25;;;;;;;7.43;4.15;;;;;;;25.70;51.03;98625.19;5179382;28;20058;-70
2022/08/05 00:12:20;;;;;;;8.02;3.88;;;;;;;25.74;51.36;98622.78;5183778;28;20056;-70
2022/08/05 00:15:11;;;;;;;6.80;3.90;;;;;;;25.70;51.32;98627.06;5190130;28;20053;-70
2022/08/05 00:18:21;;;;;;;7.82;3.70;;;;;;;25.66;51.22;98621.31;5187048;28;20432;-70
2022/08/05 00:21:13;;;;;;;8.23;4.43;;;;;;;25.74;51.49;98615.44;5183681;28;20503;-70
2022/08/05 00:24:04;;;;;;;7.15;4.07;;;;;;;25.67;51.06;98614.81;5182736;28;20068;-70
2022/08/05 00:27:05;;;;;;;5.30;4.07;;;;;;;25.48;52.23;98624.31;5176155;28;20196;-70
2022/08/05 00:30:04;;;;;;;10.95;4.20;;;;;;;25.44;51.16;98634.03;5182492;28;20057;-70
2022/08/05 00:33:00;;;;;;;8.25;3.80;;;;;;;25.30;52.38;98645.25;5175098;28;20176;-70
2022/08/05 00:35:50;;;;;;;6.15;4.10;;;;;;;25.46;51.63;98648.16;5179492;28;20052;-70
2022/08/05 00:39:01;;;;;;;4.68;3.78;;;;;;;25.37;51.42;98646.97;5179644;28;20061;-70
2022/08/05 00:41:51;;;;;;;9.95;4.10;;;;;;;25.24;51.43;98657.06;5179712;28;20061;-70
2022/08/05 00:44:44;;;;;;;11.32;4.30;;;;;;;25.20;52.15;98660.50;5183879;28;20053;-70
2022/08/05 00:47:35;;;;;;;7.43;4.20;;;;;;;25.15;51.81;98672.13;5182135;28;20054;-70
2022/08/05 00:50:48;;;;;;;6.18;3.65;;;;;;;25.01;51.63;98659.91;5183024;28;20065;-70
2022/08/05 00:53:38;;;;;;;5.00;3.83;;;;;;;25.04;52.11;98681.13;5179391;28;20115;-70
2022/08/05 00:56:48;;;;;;;8.13;4.47;;;;;;;25.04;51.51;98678.41;5179691;28;20046;-70
2022/08/05 00:59:41;;;;;;;11.15;4.20;;;;;;;25.13;52.18;98700.56;5183013;28;20057;-70
2022/08/05 01:02:34;;;;;;;9.80;4.03;;;;;;;24.81;52.83;98699.16;5181647;28;20054;-70
2022/08/05 01:05:25;;;;;;;8.70;3.90;;;;;;;24.94;52.12;98698.06;5182286;28;20516;-70
2022/08/05 01:08:18;;;;;;;7.20;4.25;;;;;;;24.89;52.11;98700.66;5182498;28;20136;-70
2022/08/05 01:11:33;;;;;;;5.38;3.97;;;;;;;24.77;52.16;98683.66;5181787;28;20180;-70
2022/08/05 01:14:39;;;;;;;6.35;4.05;;;;;;;24.73;52.02;98693.31;5180170;28;21282;-70
2022/08/05 01:17:37;;;;;;;6.10;3.55;;;;;;;24.87;49.54;98710.09;5181048;28;20629;-70
2022/08/05 01:20:29;;;;;;;7.90;2.85;;;;;;;24.79;48.53;98708.59;5180494;28;20111;-70
2022/08/05 01:23:41;;;;;;;5.18;3.70;;;;;;;24.84;47.79;98711.44;5179964;28;20418;-70
2022/08/05 01:26:55;;;;;;;9.45;3.10;;;;;;;24.83;46.71;98723.31;5180757;28;20052;-70
2022/08/05 01:29:48;;;;;;;3.27;2.97;;;;;;;24.99;46.33;98719.00;5180322;28;20052;-70
2022/08/05 01:32:43;;;;;;;5.88;3.10;;;;;;;25.15;46.17;98712.81;5185673;28;20183;-70
2022/08/05 01:35:38;;;;;;;7.70;3.15;;;;;;;24.97;46.77;98716.53;5182663;28;20049;-70
2022/08/05 01:38:45;;;;;;;5.38;3.45;;;;;;;25.12;46.32;98713.28;5180507;28;20060;-70
2022/08/05 01:41:39;;;;;;;9.38;3.10;;;;;;;25.39;45.62;98721.63;5181205;28;20540;-70
2022/08/05 01:44:35;;;;;;;7.25;3.63;;;;;;;25.41;46.25;98733.06;5176831;28;20052;-70
2022/08/05 01:47:29;;;;;;;4.65;3.00;;;;;;;25.24;46.57;98754.75;5180316;28;20050;-70
2022/08/05 01:50:37;;;;;;;6.65;2.70;;;;;;;25.34;46.46;98743.25;5183742;28;20735;-70
2022/08/05 01:53:33;;;;;;;5.03;2.85;;;;;;;25.11;47.86;98749.59;5180876;28;20606;-71
2022/08/05 01:56:44;;;;;;;11.98;2.97;;;;;;;25.75;46.62;98750.16;5179719;28;20075;-70
2022/08/05 01:59:59;;;;;;;13.15;3.28;;;;;;;25.76;47.25;98746.38;5179299;28;20064;-70
2022/08/05 02:02:58;;;;;;;7.65;3.53;;;;;;;25.82;47.49;98738.31;5181742;28;20104;-70
2022/08/05 02:05:53;;;;;;;10.75;3.55;;;;;;;25.87;47.32;98736.50;5174058;28;20085;-70
2022/08/05 02:08:53;;;;;;;7.07;3.17;;;;;;;26.00;47.33;98738.88;5177756;28;20784;-70
2022/08/05 02:12:04;;;;;;;7.05;3.00;;;;;;;25.77;47.95;98720.03;5181208;28;20046;-70
2022/08/05 02:15:10;;;;;;;8.05;2.83;;;;;;;25.96;47.41;98742.31;5179008;28;20057;-70
2022/08/05 02:18:06;;;;;;;9.55;3.63;;;;;;;25.88;47.48;98737.34;5177775;28;20168;-70
2022/08/05 02:21:20;;;;;;;6.45;3.10;;;;;;;25.72;48.21;98736.25;5181473;28;20487;-70
2022/08/05 02:24:17;;;;;;;8.50;2.50;;;;;;;25.65;48.27;98739.13;5185345;28;20045;-70
2022/08/05 02:27:12;;;;;;;6.55;2.95;;;;;;;25.58;48.29;98748.53;5180072;28;20520;-70
2022/08/05 02:30:03;;;;;;;10.48;3.13;;;;;;;25.45;49.06;98755.09;5179432;28;20054;-70
2022/08/05 02:32:56;;;;;;;9.68;3.40;;;;;;;25.39;48.69;98750.66;5179736;28;20117;-70
2022/08/05 02:35:49;;;;;;;6.47;3.08;;;;;;;25.20;49.00;98755.47;5183298;28;20116;-70
2022/08/05 02:38:49;;;;;;;8.10;3.00;;;;;;;25.23;49.34;98739.56;5180815;28;20084;-70
2022/08/05 02:41:45;;;;;;;5.93;3.00;;;;;;;25.24;49.51;98743.09;5180021;28;20080;-70
2022/08/05 02:44:50;;;;;;;4.93;3.95;;;;;;;25.31;49.64;98747.28;5179543;28;20112;-70
2022/08/05 02:47:42;;;;;;;7.43;3.05;;;;;;;25.16;50.06;98755.13;5180700;28;20077;-70
2022/08/05 02:50:53;;;;;;;5.95;2.65;;;;;;;25.11;49.83;98755.03;5177065;28;20435;-70
2022/08/05 02:53:44;;;;;;;7.43;2.78;;;;;;;25.00;49.99;98753.19;5179182;28;20050;-70
2022/08/05 02:56:36;;;;;;;8.65;3.30;;;;;;;25.04;50.33;98748.94;5181583;28;20049;-70
2022/08/05 02:59:33;;;;;;;9.25;2.97;;;;;;;24.97;50.42;98751.81;5177158;28;20129;-70
2022/08/05 03:02:42;;;;;;;7.40;3.10;;;;;;;24.78;50.87;98734.09;5178773;28;20057;-70
2022/08/05 03:05:33;;;;;;;5.03;3.28;;;;;;;24.89;50.73;98744.03;5180315;28;20052;-70
2022/08/05 03:08:45;;;;;;;11.02;3.55;;;;;;;24.80;51.63;98748.22;5179328;28;20061;-70
2022/08/05 03:11:42;;;;;;;7.35;2.85;;;;;;;25.22;50.56;98772.34;5178770;28;20116;-70
2022/08/05 03:14:47;;;;;;;6.40;2.90;;;;;;;25.20;50.82;98777.19;5179823;28;20616;-70
2022/08/05 03:17:38;;;;;;;4.72;3.25;;;;;;;25.12;51.33;98772.97;5182303;28;20057;-70
2022/08/05 03:20:34;;;;;;;10.02;3.50;;;;;;;25.27;50.44;98781.41;5181607;28;20049;-70
2022/08/05 03:23:24;;;;;;;5.60;3.00;;;;;;;25.26;50.24;98778.91;5179096;28;20061;-70
2022/08/05 03:26:15;;;;;;;7.28;2.72;;;;;;;25.33;50.41;98778.75;5180549;28;20049;-70
2022/08/05 03:29:21;;;;;;;5.55;3.22;;;;;;;25.25;50.28;98777.28;5179421;28;20061;-70
2022/08/05 03:32:12;;;;;;;8.45;3.42;;;;;;;25.16;50.65;98778.75;5181010;28;20113;-70
2022/08/05 03:35:04;;;;;;;6.93;2.80;;;;;;;25.11;50.94;98765.06;5174136;28;20180;-70
2022/08/05 03:37:58;;;;;;;8.48;3.10;;;;;;;25.11;50.13;98782.16;5181241;28;20061;-70
2022/08/05 03:40:49;;;;;;;9.40;3.60;;;;;;;25.02;51.50;98791.75;5169617;28;20060;-70
2022/08/05 03:43:40;;;;;;;7.05;3.15;;;;;;;25.10;50.95;98777.81;5178756;28;20180;-70
2022/08/05 03:46:50;;;;;;;10.88;3.55;;;;;;;25.01;51.43;98779.25;5174458;28;20195;-70
2022/08/05 03:49:41;;;;;;;7.30;3.25;;;;;;;24.97;50.87;98791.69;5181007;28;20156;-70
2022/08/05 03:52:56;;;;;;;11.27;3.33;;;;;;;24.91;51.50;98777.19;5177725;28;20065;-70
2022/08/05 03:56:14;;;;;;;9.65;3.83;;;;;;;24.90;51.26;98736.72;5176873;28;20050;-70
2022/08/05 03:59:26;;;;;;;7.82;3.03;;;;;;;25.02;51.14;98759.22;5180174;28;20452;-70
2022/08/05 04:02:37;;;;;;;7.15;3.05;;;;;;;24.79;51.33;98771.78;5176884;28;20053;-70
2022/08/05 04:05:47;;;;;;;8.15;3.72;;;;;;;24.76;51.82;98756.00;5176642;28;20060;-70
2022/08/05 04:08:38;;;;;;;12.82;3.50;;;;;;;24.98;51.57;98756.16;5179260;28;20216;-71
2022/08/05 04:11:29;;;;;;;7.35;3.58;;;;;;;24.96;51.69;98774.56;5181967;28;20049;-72
2022/08/05 04:14:41;;;;;;;9.50;3.63;;;;;;;24.82;51.56;98746.09;5182433;28;20080;-72
2022/08/05 04:17:33;;;;;;;8.00;3.15;;;;;;;24.87;52.16;98761.63;5183525;28;20080;-71
2022/08/05 04:20:43;;;;;;;10.55;3.25;;;;;;;24.86;52.28;98779.78;5182317;28;20061;-74
2022/08/05 04:23:35;;;;;;;6.57;3.30;;;;;;;24.91;52.64;98798.06;5183526;28;20520;-72
2022/08/05 04:26:46;;;;;;;10.20;3.75;;;;;;;24.76;52.30;98821.06;5182017;28;20580;-71
2022/08/05 04:29:36;;;;;;;9.88;3.55;;;;;;;24.95;52.98;98858.88;5183210;28;20049;-72
2022/08/05 04:32:26;;;;;;;10.93;4.03;;;;;;;24.77;53.97;98874.28;5181927;28;20054;-72
2022/08/05 04:35:22;;;;;;;14.55;3.75;;;;;;;24.66;54.35;98883.22;5180657;28;20048;-72
2022/08/05 04:38:12;;;;;;;10.50;3.50;;;;;;;24.90;53.20;98885.88;5187408;28;20196;-72
2022/08/05 04:41:05;;;;;;;12.13;3.40;;;;;;;24.75;53.42;98884.50;5179228;28;20698;-72
2022/08/05 04:43:56;;;;;;;9.43;3.53;;;;;;;24.86;52.78;98899.09;5179705;28;20057;-71
2022/08/05 04:46:47;;;;;;;8.07;3.33;;;;;;;24.96;53.15;98912.06;5182804;28;20093;-72
2022/08/05 04:49:38;;;;;;;9.38;3.58;;;;;;;24.87;53.14;98930.59;5181488;28;20054;-73
2022/08/05 04:52:48;;;;;;;9.02;3.78;;;;;;;24.87;52.76;98940.59;5181604;28;20436;-72
2022/08/05 04:55:39;;;;;;;12.18;3.90;;;;;;;24.90;52.47;98950.97;5185775;28;20046;-73
2022/08/05 04:58:50;;;;;;;7.38;3.60;;;;;;;24.92;52.65;98949.69;5177491;28;20060;-73
2022/08/05 05:01:41;;;;;;;17.35;4.05;;;;;;;24.75;53.12;98935.22;5181269;28;20058;-72
2022/08/05 05:04:51;;;;;;;13.75;4.20;;;;;;;24.94;52.51;98965.75;5174816;28;20120;-72
2022/08/05 05:07:51;;;;;;;13.93;3.80;;;;;;;25.02;52.14;98968.06;5179041;28;20050;-73
2022/08/05 05:10:46;;;;;;;10.80;3.80;;;;;;;24.93;53.08;98981.16;5181341;28;20056;-73
2022/08/05 05:13:45;;;;;;;10.05;4.28;;;;;;;24.92;52.63;99001.22;5182712;28;20056;-72
2022/08/05 05:16:37;;;;;;;7.32;3.78;;;;;;;25.18;52.52;99018.09;5181158;28;20052;-72
2022/08/05 05:19:28;;;;;;;11.60;4.10;;;;;;;25.06;53.02;99020.78;5180161;28;20281;-72
2022/08/05 05:22:33;;;;;;;;;;;;;;;24.99;53.59;99022.78;5181529;28;20061;-72
2022/08/05 05:25:23;;;;;;;10.32;3.63;;;;;;;25.24;52.65;99019.88;5179360;28;19922;-72
2022/08/05 05:28:22;;;;;;;7.38;4.50;;;;;;;25.65;51.97;99013.38;5185020;28;20076;-72
2022/08/05 05:31:13;;;;;;;9.93;4.60;;;;;;;25.28;52.65;99019.13;5183273;28;20081;-73
2022/08/05 05:34:07;;;;;;;;;;;;;;;25.52;52.21;99022.63;5184502;28;20104;-72
2022/08/05 05:36:58;;;;;;;7.45;4.15;;;;;;;25.67;52.40;99019.41;5176523;28;19928;-72
2022/08/05 05:39:49;;;;;;;10.07;5.10;;;;;;;25.65;52.15;99031.56;5174723;28;20060;-73
2022/08/05 05:42:39;;;;;;;11.75;5.25;;;;;;;25.40;52.42;99029.97;5174814;28;20184;-72
2022/08/05 05:45:36;;;;;;;8.10;4.82;;;;;;;25.53;51.55;99018.03;5180099;28;20102;-72
2022/08/05 05:48:37;;;;;;;9.18;4.47;;;;;;;25.94;51.36;99035.97;5181154;28;20647;-72
2022/08/05 05:51:28;;;;;;;11.07;4.85;;;;;;;26.11;50.77;99033.28;5180972;28;20121;-74
2022/08/05 05:54:38;;;;;;;7.25;4.32;;;;;;;26.47;49.67;99042.94;5180163;28;20048;-72
2022/08/05 05:57:42;;;;;;;8.40;4.13;;;;;;;25.91;49.93;99046.50;5174599;28;20053;-69
2022/08/05 06:00:42;;;;;;;9.38;3.72;;;;;;;26.15;48.96;99042.59;5175518;28;20077;-68
2022/08/05 06:03:36;;;;;;;7.40;3.20;;;;;;;26.56;48.12;99037.09;5173089;28;20046;-68
2022/08/05 06:06:46;;;;;;;7.00;3.28;;;;;;;26.86;47.58;99058.53;5177239;28;20057;-69
2022/08/05 06:09:37;;;;;;;3.75;2.88;;;;;;;26.37;48.09;99060.94;5172142;28;20042;-69
2022/08/05 06:12:48;;;;;;;6.28;2.97;;;;;;;26.26;48.61;99068.09;5177173;28;20069;-70
2022/08/05 06:15:38;;;;;;;8.30;2.90;;;;;;;26.58;47.41;99060.22;5177866;28;20049;-72
2022/08/05 06:18:48;;;;;;;6.75;2.88;;;;;;;26.92;46.97;99054.78;5174530;28;20139;-68
2022/08/05 06:21:42;;;;;;;8.02;3.50;;;;;;;27.04;46.75;99052.78;5179143;28;20143;-68
2022/08/05 06:24:41;;;;;;;8.80;3.05;;;;;;;27.02;47.23;99048.66;5175857;28;20053;-68
2022/08/05 06:27:37;;;;;;;4.45;2.80;;;;;;;27.24;46.27;99032.41;5177110;28;20189;-68
2022/08/05 06:30:47;;;;;;;5.00;2.95;;;;;;;27.42;45.99;99010.34;5177831;28;20046;-68
2022/08/05 06:33:38;;;;;;;5.88;2.90;;;;;;;27.13;46.63;99036.91;5175103;28;20061;-69
2022/08/05 06:36:48;;;;;;;9.00;3.63;;;;;;;27.26;46.68;99035.72;5178683;28;20069;-69
2022/08/05 06:39:47;;;;;;;5.53;3.20;;;;;;;27.48;45.58;99044.69;5172375;28;20057;-68
2022/08/05 06:42:39;;;;;;;5.60;2.85;;;;;;;27.84;45.77;99048.72;5174129;28;20050;-72
2022/08/05 06:45:29;;;;;;;7.90;2.85;;;;;;;27.60;45.22;99055.50;5176987;28;20162;-71
2022/08/05 06:48:39;;;;;;;5.03;2.65;;;;;;;27.79;45.27;99045.94;5173458;28;20167;-72
2022/08/05 06:51:48;;;;;;;5.50;2.70;;;;;;;27.93;45.76;99051.81;5174199;28;20050;-68
2022/08/05 06:54:39;;;;;;;6.15;2.72;;;;;;;28.06;44.95;99045.97;5178587;28;20061;-70
2022/08/05 06:57:29;;;;;;;4.30;2.90;;;;;;;28.56;44.29;99054.91;5178050;28;20054;-68
2022/08/05 07:00:39;;;;;;;7.75;2.70;;;;;;;28.46;44.59;99044.75;5178454;28;20147;-70
2022/08/05 07:03:31;;;;;;;5.63;2.70;;;;;;;27.93;44.99;99062.72;5175703;28;20069;-69
2022/08/05 07:06:22;;;;;;;7.00;2.67;;;;;;;28.28;44.66;99065.00;5180419;28;20050;-69
2022/08/05 07:09:17;;;;;;;8.07;2.70;;;;;;;28.46;44.01;99066.56;5180402;28;20101;-71
2022/08/05 07:16:47;;;;;;;7.13;2.75;;;;;;;27.66;44.78;99065.38;5177300;28;20046;-71
2022/08/05 07:18:47;;;;;;;10.82;3.00;;;;;;;27.98;44.98;99079.16;5176521;28;20104;-70
2022/08/05 07:21:37;;;;;;;3.75;2.72;;;;;;;28.29;44.39;99084.91;5180234;28;20684;-70
2022/08/05 07:24:48;;;;;;;8.32;3.22;;;;;;;28.57;43.49;99083.84;5173734;28;20046;-70
2022/08/05 07:27:43;;;;;;;5.78;3.00;;;;;;;29.05;43.47;99086.72;5171300;28;20073;-71
2022/08/05 07:30:51;;;;;;;3.25;2.28;;;;;;;28.51;44.31;99091.16;5175564;28;20064;-71
2022/08/05 07:33:44;;;;;;;8.75;2.90;;;;;;;29.10;41.85;99092.19;5176790;28;20058;-70
2022/08/05 07:36:34;;;;;;;4.63;2.38;;;;;;;30.41;39.20;99088.44;5179591;28;20069;-72
2022/08/05 07:39:28;;;;;;;6.85;2.58;;;;;;;30.46;39.24;99086.78;5178094;28;20123;-73
2022/08/05 07:42:38;;;;;;;5.90;2.17;;;;;;;30.21;37.60;99087.59;5178337;28;20046;-73
2022/08/05 07:45:32;;;;;;;2.80;2.17;;;;;;;29.97;38.99;99096.25;5183253;28;20164;-73
2022/08/05 07:48:42;;;;;;;2.25;2.00;;;;;;;30.40;38.16;99099.66;5181906;28;20085;-72
2022/08/05 07:51:53;;;;;;;4.28;2.30;;;;;;;31.32;37.13;99099.63;5177363;28;20061;-72
2022/08/05 07:54:44;;;;;;;3.22;2.00;;;;;;;31.77;35.12;99101.44;5181384;28;20061;-73
2022/08/05 07:57:38;;;;;;;6.25;2.00;;;;;;;32.29;35.11;99096.56;5179810;28;20054;-72
2022/08/05 08:00:48;;;;;;;2.55;1.92;;;;;;;32.51;33.51;99086.00;5178965;28;20571;-73
2022/08/05 08:03:39;;;;;;;5.53;1.85;;;;;;;32.90;32.80;99106.28;5167602;28;20136;-74
2022/08/05 08:06:34;;;;;;;4.97;1.77;;;;;;;32.05;33.69;99105.47;5179102;28;20513;-72
2022/08/05 08:09:24;;;;;;;5.97;1.92;;;;;;;32.51;33.27;99096.97;5177883;28;20077;-70
2022/08/05 08:12:18;;;;;;;;;;;;;;;32.36;33.37;99099.81;5181952;28;20057;-71
2022/08/05 08:15:26;;;;;;;4.70;1.85;;;;;;;33.70;32.99;99096.72;5177094;28;20287;-71
2022/08/05 08:18:38;;;;;;;1.85;1.70;;;;;;;33.75;33.09;99097.50;5171230;28;20479;-72
2022/08/05 08:21:28;;;;;;;4.43;1.95;;;;;;;33.58;32.90;99092.47;5172206;28;20057;-71
2022/08/05 08:24:21;;;;;;;1.80;1.70;;;;;;;34.16;31.40;99096.16;5177213;28;20133;-71
2022/08/05 08:27:36;;;;;;;7.65;2.30;;;;;;;33.51;32.28;99091.16;5194085;28;20074;-70
2022/08/05 08:30:36;;;;;;;2.00;1.80;;;;;;;34.05;31.83;99089.97;5176161;28;20543;-70
2022/08/05 08:33:38;;;;;;;4.95;1.90;;;;;;;33.08;33.14;99075.41;5181170;28;20050;-70
2022/08/05 08:36:32;;;;;;;2.15;1.70;;;;;;;33.37;31.38;99083.59;5176212;28;20133;-71
2022/08/05 08:39:41;;;;;;;3.50;1.73;;;;;;;34.47;31.82;99083.59;5182421;28;20093;-71
2022/08/05 08:42:41;;;;;;;3.65;1.63;;;;;;;33.62;32.13;99071.53;5180037;28;20234;-71
2022/08/05 08:45:40;;;;;;;5.50;1.70;;;;;;;33.12;32.13;99048.97;5178365;28;20294;-71
2022/08/05 08:48:31;;;;;;;1.58;1.45;;;;;;;33.38;31.35;99059.69;5198242;28;20051;-70
2022/08/05 08:51:47;;;;;;;3.97;1.80;;;;;;;33.27;33.09;99063.66;5173930;28;20060;-71
2022/08/05 08:54:55;;;;;;;2.55;1.70;;;;;;;33.41;31.29;99062.69;5175621;28;20049;-70
2022/08/05 08:57:47;;;;;;;2.85;1.77;;;;;;;33.55;31.19;99062.00;5176861;28;20042;-71
2022/08/05 09:00:47;;;;;;;4.68;1.83;;;;;;;34.46;31.30;99042.56;5178717;28;20049;-71
2022/08/05 09:03:40;;;;;;;2.87;2.03;;;;;;;35.86;29.64;99052.41;5173239;28;20064;-71
2022/08/05 09:06:34;;;;;;;8.10;2.45;;;;;;;36.43;28.58;99044.50;5173337;28;20054;-71
2022/08/05 09:09:25;;;;;;;1.83;1.52;;;;;;;35.01;29.65;99037.25;5178030;28;20161;-71
2022/08/05 09:12:24;;;;;;;2.67;1.90;;;;;;;35.37;28.61;99031.91;5182669;28;20496;-71
2022/08/05 09:15:17;;;;;;;4.13;1.98;;;;;;;34.35;29.39;99026.22;5181147;28;20074;-71
2022/08/05 09:18:09;;;;;;;2.20;1.83;;;;;;;35.23;28.96;99020.88;5179227;28;20064;-71
2022/08/05 09:21:04;;;;;;;3.10;1.85;;;;;;;33.85;31.02;99023.09;5178150;28;20064;-71
2022/08/05 09:24:07;;;;;;;3.30;2.17;;;;;;;34.28;30.31;99014.78;5180876;28;20072;-71
2022/08/05 09:26:59;;;;;;;2.33;1.83;;;;;;;34.82;29.47;99018.03;5177268;28;20655;-71
2022/08/05 09:29:53;;;;;;;2.92;2.00;;;;;;;35.98;28.47;99014.03;5178743;28;20140;-71
2022/08/05 09:32:43;;;;;;;5.35;1.80;;;;;;;36.13;29.16;99009.34;5182762;28;20567;-70
2022/08/05 09:35:36;;;;;;;2.80;1.80;;;;;;;36.92;27.74;99011.50;5176888;28;20531;-71
2022/08/05 09:38:28;;;;;;;4.63;1.75;;;;;;;37.20;26.57;98997.50;5178318;28;20547;-71
2022/08/05 09:41:18;;;;;;;6.82;1.92;;;;;;;37.38;27.47;98994.44;5179309;28;20093;-69
2022/08/05 09:44:08;;;;;;;2.95;2.10;;;;;;;37.17;26.52;98990.66;5176015;28;20050;-73
2022/08/05 09:47:09;;;;;;;5.85;1.70;;;;;;;37.09;26.18;98986.75;5178608;28;20041;-71
2022/08/05 09:50:02;;;;;;;3.75;1.92;;;;;;;37.06;26.37;98984.63;5175560;28;20112;-73
2022/08/05 09:52:57;;;;;;;4.57;2.03;;;;;;;37.50;25.89;98982.00;5176106;28;20048;-72
2022/08/05 09:55:56;;;;;;;1.95;1.65;;;;;;;36.49;26.46;98980.84;5175484;28;20104;-71
2022/08/05 09:59:01;;;;;;;2.90;1.60;;;;;;;35.62;27.49;98991.16;5165274;28;20061;-70
2022/08/05 10:01:53;;;;;;;2.88;1.55;;;;;;;36.80;26.92;98987.22;5175199;28;20427;-70
2022/08/05 10:04:47;;;;;;;4.07;1.67;;;;;;;37.46;24.81;98983.78;5176653;28;20103;-72
2022/08/05 10:07:45;;;;;;;3.00;1.80;;;;;;;36.54;26.26;98994.56;5176501;28;20199;-72
2022/08/05 10:10:57;;;;;;;3.83;1.98;;;;;;;37.58;24.85;98993.09;5171601;28;20608;-68
2022/08/05 10:13:47;;;;;;;3.38;1.42;;;;;;;35.39;27.56;98992.97;5177762;28;20558;-70
2022/08/05 10:16:43;;;;;;;2.55;1.70;;;;;;;35.50;28.43;98998.00;5182066;28;20048;-70
2022/08/05 10:19:43;;;;;;;3.33;1.90;;;;;;;34.70;28.56;98993.72;5183210;28;20432;-70
2022/08/05 10:22:57;;;;;;;3.38;1.60;;;;;;;35.48;28.06;98994.72;5178387;28;20050;-70
2022/08/05 10:25:48;;;;;;;3.17;2.08;;;;;;;36.71;27.68;98989.13;5175851;28;20045;-72
2022/08/05 10:28:39;;;;;;;3.90;1.88;;;;;;;35.88;28.28;98988.63;5179542;28;20042;-70
2022/08/05 10:31:31;;;;;;;5.20;2.13;;;;;;;37.14;26.48;98985.78;5187577;28;20053;-69
2022/08/05 10:34:44;;;;;;;3.10;1.90;;;;;;;36.09;27.50;98983.47;5169219;28;20147;-69
2022/08/05 10:37:36;;;;;;;4.30;1.80;;;;;;;36.52;27.55;98992.09;5178964;28;20168;-70
2022/08/05 10:40:52;;;;;;;5.18;1.50;;;;;;;37.32;26.66;98965.34;5186828;28;20057;-71
2022/08/05 10:43:55;;;;;;;3.30;2.05;;;;;;;37.02;26.78;98980.88;5184616;28;20049;-71
2022/08/05 10:46:53;;;;;;;3.08;1.83;;;;;;;36.84;27.02;98970.81;5182161;28;20096;-71
2022/08/05 10:50:11;;;;;;;3.50;1.70;;;;;;;36.96;26.27;98979.34;5159574;28;20102;-71
2022/08/05 10:53:52;;;;;;;3.42;2.00;;;;;;;37.58;25.18;98973.72;5160937;28;20137;-71
2022/08/05 10:56:54;;;;;;;2.15;1.67;;;;;;;36.12;27.17;98974.56;5159598;28;20141;-71
2022/08/05 10:59:46;;;;;;;2.80;1.70;;;;;;;36.31;26.83;98969.69;5178712;28;20069;-71
2022/08/05 11:03:05;;;;;;;2.28;1.92;;;;;;;35.17;28.98;98974.44;5181196;28;20108;-71
2022/08/05 11:06:15;;;;;;;6.00;1.70;;;;;;;36.07;28.35;98974.72;5181650;28;20112;-72
2022/08/05 11:09:18;;;;;;;2.03;1.70;;;;;;;36.42;27.47;98973.81;5180666;28;20527;-71
2022/08/05 11:12:44;;;;;;;2.10;1.90;;;;;;;35.51;28.46;98980.31;5179561;28;20089;-71
2022/08/05 11:15:46;;;;;;;2.55;2.30;;;;;;;36.35;27.81;98980.91;5173172;28;20370;-71
2022/08/05 11:19:30;;;;;;;2.42;1.90;;;;;;;35.61;27.76;98984.00;5182891;28;20081;-71
2022/08/05 11:22:43;;;;;;;2.22;2.03;;;;;;;36.39;27.32;98981.91;5185558;28;20061;-72
2022/08/05 11:25:45;;;;;;;2.47;1.80;;;;;;;35.91;28.55;98983.31;5185548;28;20489;-71
2022/08/05 11:28:55;;;;;;;1.65;1.55;;;;;;;35.56;28.14;98984.09;5185597;28;20097;-71
2022/08/05 11:31:45;;;;;;;2.00;1.77;;;;;;;36.17;28.08;98980.78;5177858;28;20056;-71
2022/08/05 11:34:49;;;;;;;2.85;2.22;;;;;;;36.27;26.78;98976.97;5165313;28;20050;-71
2022/08/05 11:37:52;;;;;;;2.90;1.92;;;;;;;36.82;26.10;98975.84;5164908;28;20133;-71
2022/08/05 11:41:26;;;;;;;2.53;2.15;;;;;;;36.85;26.18;98973.25;5164652;28;20054;-71
2022/08/05 11:44:38;;;;;;;3.47;1.80;;;;;;;36.41;28.12;98972.19;5172355;28;20073;-71
2022/08/05 11:47:44;;;;;;;5.03;2.00;;;;;;;37.20;25.21;98973.44;5169717;28;20433;-71
2022/08/05 11:50:40;;;;;;;3.38;1.83;;;;;;;37.11;26.68;98970.63;5165052;28;20197;-71
2022/08/05 11:53:31;;;;;;;4.20;1.80;;;;;;;37.01;25.80;98957.09;5164507;28;20173;-71
2022/08/05 11:56:48;;;;;;;2.42;1.50;;;;;;;37.33;26.02;98966.16;5164460;28;20073;-72
2022/08/05 11:59:39;;;;;;;2.35;1.75;;;;;;;36.50;25.82;98960.41;5164959;28;20058;-72
2022/08/05 12:02:39;;;;;;;3.53;2.05;;;;;;;36.34;26.02;98952.50;5180409;28;20057;-72
2022/08/05 12:05:33;;;;;;;4.20;2.00;;;;;;;35.93;26.62;98947.97;5185153;28;20531;-71
2022/08/05 12:08:32;;;;;;;6.05;1.77;;;;;;;35.34;27.62;98949.00;5184874;28;20119;-71
2022/08/05 12:11:28;;;;;;;4.15;1.80;;;;;;;35.29;28.16;98958.97;5184766;28;20050;-71
2022/08/05 12:14:39;;;;;;;2.50;1.98;;;;;;;35.32;27.84;98952.03;5184866;28;20050;-71
2022/08/05 12:17:34;;;;;;;1.80;1.50;;;;;;;35.01;26.59;98949.09;5166667;28;20050;-71
2022/08/05 12:20:44;;;;;;;2.45;1.65;;;;;;;34.92;27.45;98948.97;5164423;28;20061;-71
2022/08/05 12:23:34;;;;;;;2.60;1.30;;;;;;;35.01;27.36;98944.38;5164838;28;20054;-71
2022/08/05 12:26:36;;;;;;;3.22;1.52;;;;;;;34.03;28.13;98940.88;5164405;28;20057;-71
2022/08/05 12:29:30;;;;;;;12.73;1.98;;;;;;;34.80;28.88;98943.13;5162692;28;20061;-71
2022/08/05 12:32:31;;;;;;;4.55;1.60;;;;;;;34.52;27.51;98951.38;5164575;28;20519;-71
2022/08/05 12:35:23;;;;;;;2.95;1.67;;;;;;;33.97;28.93;98940.13;5164774;28;20072;-71
2022/08/05 12:38:26;;;;;;;5.50;1.90;;;;;;;34.19;28.69;98935.97;5164634;28;20097;-71
2022/08/05 12:41:20;;;;;;;2.53;1.60;;;;;;;34.71;28.17;98929.28;5164340;28;20061;-71
2022/08/05 12:44:23;;;;;;;3.60;1.77;;;;;;;35.06;26.99;98932.47;5164751;28;20112;-71
2022/08/05 12:47:30;;;;;;;3.13;1.58;;;;;;;34.91;27.39;98917.03;5184259;28;20061;-71
2022/08/05 12:50:20;;;;;;;5.10;1.88;;;;;;;34.69;27.33;98933.44;5184521;28;20101;-71
2022/08/05 12:53:15;;;;;;;2.80;1.85;;;;;;;34.24;28.06;98941.38;5184277;28;20046;-71
2022/08/05 12:56:25;;;;;;;4.00;2.15;;;;;;;34.62;28.61;98931.09;5184272;28;20157;-71
2022/08/05 12:59:31;;;;;;;2.03;1.77;;;;;;;34.63;28.72;98927.22;5183721;28;20423;-72
2022/08/05 13:02:41;;;;;;;2.50;1.80;;;;;;;34.83;28.16;98926.81;5172582;28;20592;-71
2022/08/05 13:05:36;;;;;;;6.10;1.80;;;;;;;34.58;27.43;98925.38;5184510;28;20065;-71
2022/08/05 13:08:30;;;;;;;1.80;1.70;;;;;;;34.06;28.56;98932.03;5184346;28;20056;-71
2022/08/05 13:11:27;;;;;;;3.55;1.75;;;;;;;33.52;29.66;98925.94;5184234;28;20084;-71
2022/08/05 13:14:40;;;;;;;1.75;1.60;;;;;;;33.48;29.99;98930.38;5184321;28;20428;-71
2022/08/05 13:17:31;;;;;;;;;;;;;;;34.02;28.98;98928.25;5164645;28;20070;-71
2022/08/05 13:20:34;;;;;;;4.05;1.70;;;;;;;33.72;29.38;98927.59;5164041;28;20335;-71
2022/08/05 13:23:29;;;;;;;1.73;1.52;;;;;;;33.03;30.37;98918.88;5163842;28;20089;-71
2022/08/05 13:26:20;;;;;;;3.08;1.60;;;;;;;33.42;30.71;98920.56;5163835;28;20254;-71
2022/08/05 13:29:19;;;;;;;2.97;1.83;;;;;;;34.16;29.40;98923.63;5163702;28;20567;-71
2022/08/05 13:32:27;;;;;;;6.47;2.15;;;;;;;33.76;29.75;98920.38;5163170;28;20524;-71
2022/08/05 13:35:23;;;;;;;3.08;1.83;;;;;;;33.38;29.74;98922.28;5163809;28;20512;-71
2022/08/05 13:38:33;;;;;;;4.28;1.80;;;;;;;33.49;29.76;98926.53;5163769;28;20097;-71
2022/08/05 13:41:31;;;;;;;2.83;1.90;;;;;;;33.92;30.49;98923.72;5175975;28;20057;-71
2022/08/05 13:44:26;;;;;;;2.53;1.60;;;;;;;33.23;30.64;98923.28;5163466;28;20077;-71
2022/08/05 13:47:18;;;;;;;2.60;1.80;;;;;;;33.38;30.26;98930.53;5163354;28;20070;-71
2022/08/05 13:50:25;;;;;;;3.38;1.65;;;;;;;33.85;29.60;98918.59;5162926;28;20196;-71
2022/08/05 13:53:16;;;;;;;2.75;1.70;;;;;;;33.42;30.47;98910.38;5162659;28;20117;-71
2022/08/05 13:56:07;;;;;;;4.55;1.77;;;;;;;33.14;30.55;98909.38;5162332;28;20121;-71
2022/08/05 13:59:07;;;;;;;2.88;1.75;;;;;;;32.93;30.68;98906.03;5162971;28;20057;-71
2022/08/05 14:02:12;;;;;;;2.75;1.67;;;;;;;32.65;31.24;98907.75;5162172;28;20093;-71
2022/08/05 14:05:15;;;;;;;2.55;1.83;;;;;;;33.13;30.52;98899.50;5163259;28;20069;-71
2022/08/05 14:08:19;;;;;;;5.20;1.85;;;;;;;33.44;30.53;98877.94;5163062;28;20057;-71